Date,TemperatureHighF,TemperatureAvgF,TemperatureLowF,DewpointHighF,DewpointAvgF,DewpointLowF,HumidityHigh,HumidityAvg,HumidityLow,PressureMaxIn,PressureMinIn,WindSpeedMaxMPH,WindSpeedAvgMPH,GustSpeedMaxMPH,PrecipitationSumIn
2012-1-1,44,36,31,42,34,30,97,95,85,30.07,29.57,13,2,16,0.19
2012-1-2,43,36,30,42,25,15,96,66,49,29.70,29.52,20,4,27,0.03
2012-1-3,30,20,10,18,6,-2,63,56,51,30.07,29.69,13,5,25,0.00
2012-1-4,23,15,5,9,3,-2,76,59,45,30.14,29.89,8,4,16,0.00
2012-1-5,35,26,19,27,17,9,85,68,56,29.91,29.74,10,2,18,0.00
2012-1-6,42,28,20,28,22,15,92,79,55,29.90,29.70,4,1,9,0.00
2012-1-7,45,34,25,35,29,23,94,81,59,29.87,29.64,8,1,11,0.00
2012-1-8,40,35,24,30,22,13,82,58,45,30.27,29.88,12,2,16,0.00
2012-1-9,36,26,20,21,18,15,84,73,47,30.29,29.99,8,1,9,0.00
2012-1-10,41,31,22,30,24,19,89,76,64,29.94,29.75,7,1,10,0.00
2012-1-11,35,29,24,26,22,19,88,76,60,30.12,29.94,7,1,8,0.00
2012-1-12,33,32,31,32,30,26,95,92,83,30.01,29.55,3,0,6,0.69
2012-1-13,36,31,25,33,28,22,96,90,69,29.56,29.13,16,3,26,0.20
2012-1-14,31,23,8,25,14,2,84,69,54,30.05,29.57,12,3,20,0.00
2012-1-15,13,5,-2,1,-3,-6,84,71,51,30.55,30.05,20,3,22,0.00
2012-1-16,27,11,-5,24,3,-10,87,73,51,30.62,30.09,7,2,15,0.00
2012-1-17,40,33,27,39,31,24,96,91,84,30.09,29.38,11,3,14,0.19
2012-1-18,42,30,14,39,16,3,96,58,40,30.16,29.38,20,6,27,0.00
2012-1-19,27,17,5,22,9,1,92,73,51,30.30,29.94,9,1,12,0.12
2012-1-20,27,20,12,22,12,4,93,72,42,30.29,29.91,9,1,19,0.00
2012-1-21,18,14,4,13,8,1,87,79,59,30.38,30.15,7,2,9,0.08
2012-1-22,26,11,-3,15,5,-7,88,79,54,30.61,30.39,3,0,4,0.00
2012-1-23,33,26,18,32,24,15,100,92,86,30.50,29.84,2,0,3,0.37
2012-1-24,47,36,33,40,32,26,97,86,63,30.04,29.83,8,2,14,0.00
2012-1-25,37,35,30,28,26,25,87,71,65,30.20,30.04,7,2,16,0.00
2012-1-26,38,33,28,32,27,22,94,80,52,30.21,29.93,6,1,8,0.15
2012-1-27,40,35,33,36,33,31,100,92,72,29.92,29.30,14,1,20,1.41
2012-1-28,42,38,29,31,28,26,92,69,54,29.97,29.66,14,4,24,0.01
2012-1-29,40,34,27,26,18,15,77,55,39,30.05,29.87,14,4,26,0.00
2012-1-30,34,28,22,26,18,12,84,67,40,30.26,29.90,15,3,23,0.00
2012-1-31,40,31,22,29,25,18,90,80,58,30.26,29.96,5,0,7,0.00
2012-2-1,55,39,30,43,32,27,90,77,61,29.96,29.74,13,2,26,0.00
2012-2-2,41,35,26,31,26,15,79,70,63,30.24,29.94,12,4,14,0.00
2012-2-3,38,29,20,24,17,12,76,62,38,30.41,30.25,13,3,21,0.00
2012-2-4,38,31,22,26,20,14,89,67,43,30.23,30.11,13,3,17,0.00
2012-2-5,35,24,16,18,14,11,83,66,42,30.18,30.06,9,2,9,0.00
2012-2-6,50,34,20,27,22,16,89,65,33,30.06,29.82,16,2,19,0.00
2012-2-7,41,33,25,29,24,15,86,70,56,30.25,29.86,14,3,19,0.00
2012-2-8,36,26,16,22,14,10,82,62,41,30.30,30.05,10,2,14,0.00
2012-2-9,44,31,23,22,20,17,84,66,34,30.09,29.97,9,1,12,0.00
2012-2-10,46,32,19,27,21,17,90,68,39,30.08,29.86,11,2,16,0.00
2012-2-11,38,32,19,27,22,4,83,68,53,29.86,29.57,18,5,20,0.00
2012-2-12,22,17,12,4,1,-1,63,50,41,29.87,29.67,14,5,24,0.00
2012-2-13,38,26,12,22,15,2,82,66,46,29.95,29.79,22,3,27,0.00
2012-2-14,40,31,20,26,20,16,88,68,42,30.07,29.96,7,1,16,0.00
2012-2-15,46,35,31,31,28,23,85,75,49,30.24,30.07,3,0,7,0.00
2012-2-16,42,34,26,33,30,24,93,86,63,30.27,29.98,8,2,12,0.01
2012-2-17,46,36,28,38,29,21,95,77,46,29.98,29.87,15,3,20,0.00
2012-2-18,44,36,29,29,24,20,89,64,41,29.97,29.82,11,2,17,0.00
2012-2-19,41,32,25,29,22,17,87,66,39,30.07,29.98,9,2,16,0.00
2012-2-20,40,29,23,19,16,12,82,60,33,30.30,30.01,14,4,23,0.00
2012-2-21,40,29,18,33,20,15,92,72,44,30.32,29.81,16,3,21,0.01
2012-2-22,53,40,31,38,30,23,100,71,32,29.80,29.46,15,3,22,0.01
2012-2-23,49,37,30,42,30,26,95,77,49,29.77,29.36,9,2,24,0.06
2012-2-24,34,32,30,32,30,25,96,89,82,29.78,29.23,3,0,7,0.55
2012-2-25,39,34,29,33,25,16,96,70,50,29.84,29.20,18,6,29,0.00
2012-2-26,38,29,22,17,9,3,74,45,24,30.42,29.86,12,4,20,0.00
2012-2-27,45,33,19,32,23,15,87,68,50,30.43,30.01,12,2,19,0.00
2012-2-28,43,36,26,27,21,15,78,56,36,30.37,30.06,10,4,23,0.00
2012-2-29,33,29,27,29,25,19,94,84,69,30.37,29.92,5,1,7,0.24
2012-3-1,31,28,24,30,26,22,95,93,90,30.04,29.79,8,2,10,0.67
2012-3-2,31,28,24,29,25,22,93,89,83,30.13,29.91,11,2,13,0.08
2012-3-3,41,35,30,37,32,27,96,90,62,29.89,29.35,7,1,13,0.36
2012-3-4,41,34,25,28,22,15,89,63,41,29.64,29.52,10,2,18,0.00
2012-3-5,32,26,16,16,11,7,70,54,42,30.33,29.64,15,3,26,0.00
2012-3-6,38,22,8,18,9,3,86,62,23,30.56,30.34,6,1,10,0.00
2012-3-7,55,38,21,35,26,15,88,65,39,30.52,30.19,18,3,19,0.00
2012-3-8,67,53,35,49,42,32,94,70,47,30.19,29.62,23,6,31,0.00
2012-3-9,50,38,32,39,23,17,82,56,38,30.14,29.75,12,4,28,0.01
2012-3-10,39,32,26,22,20,17,80,61,43,30.48,30.14,14,3,18,0.00
2012-3-11,61,40,24,31,24,19,86,58,28,30.46,30.20,13,3,17,0.00
2012-3-12,69,44,28,38,31,26,92,66,21,30.28,30.06,7,1,11,0.00
2012-3-13,66,53,44,57,46,36,92,76,60,30.07,29.83,11,2,15,0.01
2012-3-14,60,48,35,47,37,32,96,70,38,30.20,29.93,15,2,20,0.00
2012-3-15,48,43,40,43,39,37,94,85,70,30.32,30.20,6,1,13,0.07
2012-3-16,43,41,39,41,38,35,95,91,86,30.28,30.08,8,2,15,0.10
2012-3-17,55,46,36,45,41,35,96,86,65,30.35,30.18,6,1,7,0.00
2012-3-18,72,49,34,54,43,33,97,83,50,30.30,30.10,7,2,13,0.01
2012-3-19,78,55,38,53,46,37,97,76,34,30.22,30.09,8,1,11,0.00
2012-3-20,80,60,42,57,49,41,95,72,38,30.28,30.16,8,1,14,0.00
2012-3-21,77,60,45,58,52,44,97,78,42,30.33,30.16,11,2,18,0.00
2012-3-22,82,62,46,59,51,45,97,73,31,30.20,29.97,9,1,14,0.00
2012-3-23,73,61,52,53,41,26,93,53,20,30.12,30.00,20,4,26,0.00
2012-3-24,58,53,49,36,24,13,55,34,19,30.12,30.00,9,2,15,0.00
2012-3-25,49,46,43,43,41,36,94,83,62,30.00,29.70,5,0,8,0.13
2012-3-26,46,38,30,43,22,3,94,57,31,30.05,29.60,26,9,37,0.01
2012-3-27,46,32,24,13,3,-9,50,31,12,30.21,30.05,15,7,29,0.00
2012-3-28,50,38,31,42,26,11,93,61,43,30.15,29.53,12,2,18,0.05
2012-3-29,46,42,38,43,34,27,94,75,59,29.92,29.52,14,5,20,0.01
2012-3-30,49,40,32,28,20,11,76,48,23,30.05,29.92,12,4,20,0.00
2012-3-31,48,41,35,34,28,20,79,60,45,30.02,29.84,10,2,13,0.00
2012-4-1,49,39,26,39,32,24,94,80,49,29.87,29.62,7,1,10,0.08
2012-4-2,52,42,29,38,26,11,94,59,24,29.83,29.61,21,7,27,0.01
2012-4-3,57,40,24,28,17,9,87,47,17,29.88,29.71,17,4,26,0.00
2012-4-4,58,45,30,39,28,20,92,57,25,29.72,29.46,17,3,26,0.06
2012-4-5,47,39,30,34,27,22,96,66,41,29.89,29.65,18,5,26,0.01
2012-4-6,51,37,25,28,22,15,88,58,26,30.00,29.89,21,5,25,0.00
2012-4-7,54,41,26,27,23,18,84,53,30,30.01,29.91,23,4,26,0.00
2012-4-8,57,44,36,33,28,25,76,56,31,29.97,29.56,12,2,21,0.00
2012-4-9,48,45,35,37,33,27,78,63,48,29.60,29.47,16,5,27,0.00
2012-4-10,55,48,36,34,30,25,76,51,36,29.74,29.56,13,4,21,0.00
2012-4-11,55,44,29,36,31,26,91,64,38,29.88,29.74,13,3,19,0.00
2012-4-12,58,46,36,41,34,25,90,68,32,30.09,29.88,19,4,25,0.01
2012-4-13,64,48,30,36,29,22,95,55,21,30.15,30.00,14,2,18,0.01
2012-4-14,70,54,30,40,29,17,85,46,14,30.15,29.93,10,1,18,0.00
2012-4-15,75,62,43,57,47,37,90,60,45,29.95,29.85,12,2,19,0.04
2012-4-16,90,72,56,65,56,45,97,64,22,29.96,29.77,18,4,26,0.07
2012-4-17,74,65,53,57,41,27,88,46,21,30.15,29.82,10,4,20,0.00
2012-4-18,60,50,40,38,31,27,76,49,31,30.25,30.09,11,3,17,0.00
2012-4-19,74,52,32,42,35,29,93,60,21,30.09,29.89,10,2,17,0.00
2012-4-20,78,61,42,51,44,35,93,59,23,29.97,29.79,17,6,25,0.00
2012-4-21,77,63,52,56,51,45,83,67,44,29.82,29.57,18,6,22,0.02
2012-4-22,51,46,42,47,42,41,95,87,76,29.81,29.66,15,6,22,0.81
2012-4-23,59,48,41,56,45,39,96,89,75,29.67,29.21,18,5,24,0.19
2012-4-24,52,47,40,43,37,33,87,70,48,29.62,29.29,17,7,26,0.00
2012-4-25,55,44,32,40,33,28,95,70,40,29.86,29.63,15,3,27,0.00
2012-4-26,58,45,30,48,36,28,95,75,40,29.92,29.52,10,2,15,0.00
2012-4-27,50,45,38,49,33,23,94,65,49,30.03,29.50,16,4,32,0.00
2012-4-28,56,44,34,29,22,16,73,44,23,30.12,30.02,16,5,25,0.00
2012-4-29,56,43,29,29,20,6,87,48,14,30.22,30.01,22,4,28,0.00
2012-4-30,63,48,28,37,26,21,80,47,21,30.31,30.13,11,2,17,0.00
2012-5-1,54,46,43,46,43,31,95,88,43,30.14,30.03,6,2,14,0.65
2012-5-2,54,49,44,48,45,42,94,88,79,30.19,30.12,4,0,9,0.00
2012-5-3,54,50,47,51,48,45,96,93,88,30.15,30.05,6,1,10,0.20
2012-5-4,64,56,51,59,53,49,96,92,84,30.07,29.86,7,2,14,0.06
2012-5-5,66,57,45,57,51,42,97,80,44,30.06,29.89,11,3,16,0.00
2012-5-6,70,54,41,50,43,31,95,71,28,30.09,29.98,7,1,12,0.00
2012-5-7,74,56,36,50,39,22,96,60,16,30.12,29.98,9,2,16,0.00
2012-5-8,60,52,48,55,50,45,96,91,66,30.02,29.79,14,3,15,0.95
2012-5-9,65,60,56,61,58,55,96,93,88,29.80,29.56,6,1,7,0.05
2012-5-10,63,55,47,57,49,40,96,81,59,29.66,29.40,13,2,24,0.43
2012-5-11,65,53,40,42,38,28,94,62,27,30.03,29.66,16,2,22,0.00
2012-5-12,78,57,34,51,41,33,96,63,23,30.14,30.02,9,1,19,0.00
2012-5-13,83,65,48,57,51,46,95,66,29,30.13,29.99,13,1,15,0.00
2012-5-14,69,61,57,63,58,54,96,90,77,30.13,30.05,7,1,10,0.38
2012-5-15,67,61,60,62,59,58,97,93,81,30.10,29.93,14,2,14,0.54
2012-5-16,74,64,59,67,61,57,97,91,76,29.93,29.72,13,2,16,0.37
2012-5-17,67,56,44,57,43,34,96,66,30,30.14,29.86,11,2,20,0.00
2012-5-18,76,57,39,52,43,37,97,65,25,30.25,30.09,5,1,10,0.00
2012-5-19,85,64,44,58,49,42,95,66,27,30.18,30.05,6,1,11,0.00
2012-5-20,88,69,50,61,55,48,96,67,34,30.24,30.13,8,1,10,0.00
2012-5-21,75,64,48,64,57,46,96,78,53,30.24,30.02,6,1,11,0.00
2012-5-22,72,66,62,65,62,60,94,86,72,30.02,29.79,5,0,7,0.02
2012-5-23,83,70,61,67,63,59,95,81,54,30.01,29.82,7,1,13,0.00
2012-5-24,77,68,62,69,64,60,95,87,71,30.18,30.01,7,1,10,0.14
2012-5-25,74,66,62,68,64,61,95,91,80,30.19,30.04,11,3,19,0.03
2012-5-26,88,74,60,71,63,47,96,73,25,30.08,29.99,6,1,14,0.00
2012-5-27,86,69,53,66,57,52,96,70,38,30.18,29.96,10,1,13,0.00
2012-5-28,88,74,59,71,63,56,91,71,48,29.99,29.82,7,1,13,0.00
2012-5-29,88,74,66,77,68,65,96,83,62,29.82,29.58,15,2,19,1.12
2012-5-30,80,67,62,68,64,61,97,90,62,29.71,29.65,9,1,11,0.11
2012-5-31,80,68,58,62,56,48,96,69,38,29.93,29.70,13,1,15,0.01
2012-6-1,74,62,48,56,50,40,94,65,43,30.04,29.93,8,1,12,0.00
2012-6-2,60,55,51,56,52,40,96,90,49,29.94,29.69,6,1,9,1.71
2012-6-3,72,59,51,59,55,50,97,86,58,29.71,29.61,10,2,15,0.20
2012-6-4,56,53,50,52,50,48,95,89,77,29.81,29.63,13,3,18,0.09
2012-6-5,64,56,49,56,52,48,96,86,64,29.91,29.80,7,1,11,0.02
2012-6-6,69,58,51,58,52,49,96,83,58,29.96,29.90,5,1,11,0.01
2012-6-7,72,58,50,62,54,48,95,87,56,29.96,29.86,6,1,21,0.49
2012-6-8,79,62,52,66,57,51,96,85,47,29.92,29.71,12,1,17,0.13
2012-6-9,79,65,52,61,57,51,97,78,51,29.93,29.78,6,0,11,0.01
2012-6-10,86,70,55,65,58,54,96,70,37,30.16,29.93,8,1,10,0.00
2012-6-11,78,67,58,58,55,52,90,66,46,30.24,30.14,15,4,20,0.00
2012-6-12,73,66,60,64,60,54,94,81,69,30.15,29.89,13,4,19,0.24
2012-6-13,78,68,58,67,61,54,96,80,57,30.08,29.84,13,2,13,0.36
2012-6-14,81,66,52,60,55,49,96,71,33,30.25,30.08,8,2,14,0.00
2012-6-15,82,65,48,58,52,47,98,67,31,30.32,30.22,9,1,11,0.00
2012-6-16,84,66,50,60,54,48,96,70,36,30.33,30.18,7,1,13,0.00
2012-6-17,78,64,51,58,54,49,95,71,48,30.25,30.03,11,2,16,0.00
2012-6-18,74,63,56,57,54,51,91,74,53,30.11,30.03,11,2,12,0.00
2012-6-19,79,67,54,67,60,52,95,81,64,30.11,29.98,12,3,16,0.00
2012-6-20,97,80,64,77,70,62,95,75,46,30.00,29.84,10,1,23,0.00
2012-6-21,95,82,66,76,70,65,97,71,42,29.85,29.69,12,1,17,0.00
2012-6-22,93,78,65,72,68,63,96,73,41,29.75,29.66,11,1,19,0.00
2012-6-23,85,71,59,67,62,57,94,76,42,29.92,29.75,7,1,21,0.04
2012-6-24,86,70,55,64,56,49,97,68,29,29.95,29.83,7,1,14,0.01
2012-6-25,72,65,58,66,62,56,95,89,75,29.83,29.61,8,1,13,0.35
2012-6-26,66,60,53,59,55,51,95,84,72,29.65,29.58,9,2,17,0.02
2012-6-27,76,66,57,59,56,54,94,73,50,29.73,29.55,11,2,26,0.03
2012-6-28,87,70,53,63,57,52,96,68,31,29.75,29.64,14,1,17,0.00
2012-6-29,93,73,59,74,61,53,95,73,28,29.67,29.52,11,1,23,0.03
2012-6-30,89,74,55,64,59,54,96,65,37,29.70,29.61,10,1,16,0.00
2012-7-1,92,76,60,66,60,56,94,63,30,29.82,29.69,10,2,16,0.00
2012-7-2,83,72,63,67,62,58,96,73,43,29.86,29.81,11,1,18,0.09
2012-7-3,88,72,58,66,59,52,96,69,30,29.91,29.79,9,1,16,0.00
2012-7-4,91,75,64,74,68,60,96,79,48,29.79,29.63,6,0,10,0.39
2012-7-5,83,73,64,69,65,61,97,77,54,29.85,29.66,13,3,21,0.00
2012-7-6,90,74,60,75,65,59,97,75,39,29.91,29.78,5,0,7,0.00
2012-7-7,84,72,65,71,67,63,95,84,56,29.80,29.71,6,0,10,0.00
2012-7-8,88,74,62,69,61,53,97,69,38,29.87,29.75,12,2,16,0.00
2012-7-9,84,69,53,60,53,48,96,63,32,29.97,29.87,9,1,18,0.00
2012-7-10,87,68,49,59,53,47,96,64,28,30.06,29.96,11,1,14,0.00
2012-7-11,90,72,56,61,56,49,94,63,25,30.16,30.07,6,1,8,0.00
2012-7-12,94,76,58,67,60,51,96,65,23,30.16,30.04,6,0,12,0.00
2012-7-13,93,76,61,72,66,59,96,72,39,30.17,30.05,8,1,12,0.00
2012-7-14,95,81,69,71,67,59,92,66,31,30.13,30.01,6,0,7,0.00
2012-7-15,86,74,62,75,68,61,96,82,57,30.07,29.84,5,0,19,0.42
2012-7-16,91,78,68,74,69,66,97,77,46,29.84,29.71,8,1,16,0.00
2012-7-17,97,81,67,73,69,65,96,71,40,29.77,29.59,13,2,17,0.01
2012-7-18,90,78,70,73,69,58,95,76,46,29.90,29.66,13,3,15,0.00
2012-7-19,86,71,58,62,57,54,92,64,36,30.01,29.88,10,2,21,0.00
2012-7-20,77,67,60,60,57,55,90,71,52,30.07,29.99,5,1,8,0.00
2012-7-21,87,70,56,64,55,49,96,66,28,30.09,29.98,5,1,9,0.00
2012-7-22,88,74,56,66,60,54,95,65,40,30.10,29.99,11,2,15,0.00
2012-7-23,88,77,65,73,68,63,95,77,58,30.04,29.72,16,3,19,0.13
2012-7-24,87,75,65,73,65,53,95,73,49,29.72,29.53,16,3,23,0.12
2012-7-25,71,61,55,58,54,53,94,78,62,29.80,29.71,6,1,12,0.00
2012-7-30,84,74,66,73,68,64,94,82,57,30.07,30.01,5,1,13,0.33
2012-7-31,84,73,63,66,63,61,96,74,48,30.06,29.89,14,2,20,0.00
2012-8-1,84,70,60,72,65,59,97,85,62,29.89,29.77,8,1,13,0.00
2012-8-2,92,76,65,72,66,62,97,75,37,29.86,29.77,6,0,9,0.00
2012-8-3,95,76,62,72,67,61,96,75,39,30.05,29.86,7,1,10,0.00
2012-8-4,94,76,65,74,68,64,97,81,45,30.17,30.05,8,1,16,0.00
2012-8-5,91,74,65,76,70,64,97,88,57,30.16,29.85,14,3,24,0.32
2012-8-6,82,72,60,71,64,58,97,77,45,29.96,29.88,5,1,16,0.01
2012-8-7,86,70,59,65,61,56,97,75,44,30.00,29.88,6,1,14,0.00
2012-8-8,91,73,55,72,62,53,97,73,40,29.98,29.87,9,0,10,0.00
2012-8-9,90,75,64,74,68,62,96,80,48,29.93,29.80,11,1,15,0.00
2012-8-10,81,72,68,73,69,67,96,91,68,29.85,29.77,7,0,10,1.14
2012-8-11,84,72,67,74,69,67,97,93,70,29.87,29.79,5,0,16,1.01
2012-8-12,86,75,67,75,69,65,98,84,56,29.89,29.79,6,1,11,0.01
2012-8-13,87,73,61,68,64,60,97,77,44,29.93,29.85,6,0,9,0.00
2012-8-14,84,72,60,69,64,59,97,80,51,29.93,29.86,7,1,11,0.00
2012-8-15,82,70,64,71,67,63,97,89,61,29.88,29.81,6,0,16,0.65
2012-8-16,86,73,64,68,64,58,97,76,42,29.86,29.77,8,1,16,0.00
2012-8-17,86,71,60,71,65,59,97,83,58,29.82,29.69,13,2,16,0.21
2012-8-18,81,69,55,66,60,52,97,76,38,29.90,29.80,9,1,11,0.11
2012-8-19,79,64,51,60,54,50,97,75,41,29.98,29.86,8,1,9,0.00
2012-8-20,82,66,54,63,58,53,97,79,42,29.92,29.79,5,1,10,0.02
2012-8-21,83,70,57,64,59,54,96,72,37,30.06,29.87,7,1,12,0.00
2012-8-22,86,67,53,62,56,51,97,74,33,30.13,30.04,6,0,10,0.00
2012-8-23,89,70,56,67,59,54,97,74,33,30.12,30.04,8,0,11,0.00
2012-8-24,89,71,56,68,61,55,97,75,35,30.17,30.10,4,0,8,0.00
2012-8-25,85,71,60,70,64,58,97,80,54,30.27,30.17,7,1,11,0.00
2012-8-26,87,73,60,66,63,58,96,74,44,30.31,30.17,10,1,12,0.00
2012-8-27,85,70,56,71,64,55,97,82,57,30.18,29.87,10,2,17,0.01
2012-8-28,86,74,62,73,66,59,96,78,48,29.88,29.70,14,2,21,0.38
2012-8-29,79,65,51,59,52,48,96,68,37,29.97,29.89,11,1,20,0.00
2012-8-30,84,65,49,61,54,48,97,73,36,30.03,29.93,9,2,14,0.00
2012-8-31,91,73,54,67,60,52,97,70,33,29.96,29.76,9,1,19,0.00
2012-9-1,87,73,62,70,64,60,96,74,44,30.06,29.84,9,1,14,0.00
2012-9-2,77,68,64,65,62,59,87,80,64,30.06,30.02,6,1,12,0.00
2012-9-4,68,67,67,66,66,66,96,95,92,29.92,29.80,0,0,4,0.12
2012-9-5,82,73,64,71,68,63,97,84,59,29.82,29.64,7,2,12,0.46
2012-9-6,80,69,61,70,65,60,97,88,70,29.88,29.78,7,1,14,0.01
2012-9-7,87,71,63,71,65,57,97,83,38,29.91,29.82,4,0,7,0.01
2012-9-8,82,70,61,73,66,60,97,89,61,29.84,29.51,19,4,24,0.93
2012-9-9,76,64,56,60,57,54,97,80,47,29.85,29.69,7,1,17,0.02
2012-9-10,68,58,48,56,49,43,96,74,44,30.07,29.85,13,2,20,0.00
2012-9-11,75,58,43,56,48,41,96,73,38,30.25,30.07,7,1,8,0.00
2012-9-12,81,60,45,61,52,44,97,78,34,30.35,30.25,7,1,10,0.00
2012-9-13,83,64,52,64,58,51,97,82,51,30.34,30.20,10,1,11,0.00
2012-9-14,82,66,55,65,60,54,99,83,49,30.23,30.01,9,1,13,0.00
2012-9-15,72,62,48,60,52,46,95,73,44,30.05,29.97,15,2,19,0.01
2012-9-16,72,56,44,53,45,39,97,74,31,30.08,29.97,8,1,16,0.00
2012-9-17,78,58,43,60,51,41,97,81,53,30.10,29.96,9,1,13,0.00
2012-9-18,70,61,52,69,60,51,98,95,92,30.00,29.57,17,3,26,2.40
2012-9-19,69,60,44,66,50,42,96,73,39,30.19,29.61,11,2,26,0.03
2012-9-20,69,54,42,52,47,41,97,79,48,30.27,30.10,7,1,12,0.00
2012-9-21,72,56,48,57,50,47,97,82,52,30.14,30.00,8,2,15,0.00
2012-9-22,73,59,49,62,55,47,97,87,67,30.02,29.76,12,2,17,0.57
2012-9-23,69,58,44,60,50,42,96,76,42,30.08,29.77,9,1,15,0.04
2012-9-24,66,50,39,49,42,38,97,79,37,30.14,30.03,5,0,14,0.00
2012-9-25,73,54,40,52,45,38,97,78,36,30.12,30.04,13,2,19,0.00
2012-9-26,69,60,50,63,58,49,97,90,78,30.07,29.94,7,1,14,0.03
2012-9-27,69,59,44,61,50,41,96,76,38,30.23,29.97,12,2,14,0.01
2012-9-28,52,48,42,51,47,41,97,96,93,30.24,29.99,5,1,7,1.00
2012-9-29,59,54,52,55,53,51,97,94,85,29.99,29.86,6,1,8,0.12
2012-9-30,60,54,51,56,53,50,97,95,86,29.89,29.66,6,0,10,0.21
2012-10-1,66,57,51,57,53,50,96,87,69,29.91,29.64,16,3,23,0.01
2012-10-2,63,57,52,59,55,51,98,94,82,30.03,29.89,5,0,7,0.04
2012-10-3,64,61,58,63,60,58,98,97,94,30.12,30.01,2,0,5,0.08
2012-10-4,65,63,62,64,62,61,100,97,95,30.13,30.00,4,0,6,0.17
2012-10-5,75,62,56,65,60,55,98,91,61,30.00,29.87,7,1,8,0.01
2012-10-6,72,59,51,63,54,42,98,85,68,29.90,29.64,9,2,18,0.00
2012-10-7,55,49,42,47,43,39,95,81,58,30.05,29.90,4,1,9,0.22
2012-10-8,56,48,42,47,44,41,97,87,63,30.29,30.05,3,0,8,0.02
2012-10-9,56,48,42,50,45,41,97,92,77,30.29,30.13,5,1,8,0.00
2012-10-10,56,51,48,55,50,46,97,95,84,30.12,29.70,4,0,11,0.23
2012-10-11,56,46,36,44,38,34,95,75,48,30.08,29.79,13,2,18,0.00
2012-10-12,52,40,29,42,32,25,96,76,45,30.36,29.97,15,3,20,0.02
2012-10-13,53,39,26,36,28,22,95,70,33,30.46,30.26,8,1,14,0.01
2012-10-14,59,49,42,55,47,33,97,91,64,30.26,29.87,7,2,14,0.35
2012-10-15,68,60,49,63,58,48,98,93,79,29.87,29.57,16,4,20,0.33
2012-10-16,58,49,36,57,40,34,96,73,52,29.88,29.59,19,3,28,0.00
2012-10-17,60,42,32,43,37,31,97,83,43,29.99,29.88,5,1,8,0.00
2012-10-18,65,48,36,52,43,35,97,85,57,30.08,29.96,11,1,16,0.00
2012-10-19,61,56,47,60,54,45,98,95,91,30.04,29.67,5,0,12,1.75
2012-10-20,73,62,45,64,54,42,98,78,41,29.72,29.55,13,2,18,0.02
2012-10-21,62,51,38,47,42,37,97,75,50,29.87,29.72,14,2,23,0.00
2012-10-22,65,55,42,47,42,40,92,65,41,29.99,29.86,13,3,27,0.00
2012-10-23,63,49,37,52,44,36,97,83,61,30.11,30.00,5,1,10,0.00
2012-10-24,54,49,43,42,39,36,88,68,54,30.20,30.11,5,1,11,0.00
2012-10-25,57,48,39,46,42,37,94,81,58,30.27,30.20,6,0,11,0.00
2012-10-26,66,54,48,57,50,45,96,86,71,30.22,30.08,6,0,10,0.00
2012-10-27,58,53,48,55,52,47,97,94,89,30.11,29.99,3,0,5,0.00
2012-10-28,56,53,49,52,48,45,96,84,74,29.99,29.81,11,3,20,0.00
2012-10-29,60,54,50,56,51,47,93,91,86,29.80,29.22,19,9,35,0.21
2012-10-30,66,60,55,60,56,53,96,86,63,29.50,29.24,14,3,23,0.79
2012-10-31,55,51,47,54,47,41,97,87,69,29.51,29.41,13,3,21,0.13
2012-11-1,50,46,44,44,41,38,95,83,74,29.51,29.47,8,2,12,0.01
2012-11-2,51,45,41,43,39,34,95,79,60,29.62,29.51,7,1,16,0.00
2012-11-3,48,43,39,36,34,31,83,69,58,29.83,29.62,14,3,16,0.00
2012-11-4,44,40,32,35,32,27,94,73,64,29.95,29.83,12,3,18,0.00
2012-11-5,40,35,27,26,22,17,82,62,48,30.13,29.95,15,4,20,0.00
2012-11-6,40,29,21,25,20,17,93,72,42,30.23,30.13,9,1,10,0.00
2012-11-7,36,31,22,23,21,19,89,69,57,30.21,29.85,14,5,17,0.00
2012-11-8,40,38,36,32,28,20,79,67,53,29.85,29.73,20,10,31,0.00
2012-11-9,50,42,33,35,26,20,76,58,32,30.09,29.84,15,3,20,0.00
2012-11-10,54,42,32,38,32,26,91,69,35,30.43,30.08,10,2,15,0.00
2012-11-11,60,46,36,48,40,31,95,79,60,30.44,30.35,14,2,16,0.00
2012-11-12,63,52,37,58,48,36,97,87,75,30.42,30.13,18,4,25,0.00
2012-11-13,63,46,32,58,40,29,94,81,66,30.43,30.03,13,4,25,0.40
2012-11-14,45,34,26,30,26,23,94,76,46,30.56,30.43,14,2,17,0.00
2012-11-15,42,31,24,30,26,22,94,82,55,30.50,30.32,5,1,6,0.00
2012-11-16,27,26,25,25,24,24,94,93,93,30.32,30.31,1,0,2,0.00
2012-11-23,46,46,45,43,43,43,92,91,90,29.64,29.59,6,1,8,0.00
2012-11-24,46,38,32,44,26,17,92,60,47,29.66,29.54,16,4,23,0.00
2012-11-25,37,33,28,26,20,13,77,58,40,29.83,29.66,12,3,21,0.00
2012-11-26,44,35,27,29,25,19,86,69,39,30.21,29.82,14,2,18,0.00
2012-11-27,38,32,25,33,29,22,96,89,78,30.28,30.21,7,0,8,0.01
2012-11-28,36,29,24,31,27,22,96,91,76,30.24,30.10,5,0,5,0.02
2012-11-29,43,33,25,30,25,21,94,73,42,30.23,30.12,18,2,27,0.00
2012-11-30,42,28,24,31,11,-5,77,51,23,30.55,30.18,15,6,18,0.00
2012-12-1,28,26,22,27,21,11,94,84,53,30.63,30.48,6,1,8,0.00
2012-12-2,43,35,28,42,34,27,97,96,94,30.48,30.01,11,2,17,0.20
2012-12-3,55,43,31,49,40,30,97,89,64,30.29,29.99,11,2,15,0.00
2012-12-4,53,40,32,52,39,31,98,97,96,30.29,29.89,13,2,17,0.00
2012-12-5,54,44,30,53,35,17,97,70,54,30.17,29.81,18,4,25,0.06
2012-12-6,39,30,22,22,19,16,90,66,46,30.33,30.17,14,4,22,0.00
2012-12-7,38,30,21,34,27,19,96,89,75,30.27,30.03,9,1,12,0.03
2012-12-8,41,37,35,40,36,34,97,96,96,30.03,29.89,9,0,9,0.28
2012-12-9,45,37,32,40,34,30,97,89,61,30.26,29.94,6,1,10,0.08
2012-12-10,47,38,34,46,37,32,97,96,90,30.13,29.48,10,0,14,0.01
2012-12-11,45,39,30,42,31,20,96,75,56,30.14,29.58,12,2,17,0.04
2012-12-12,42,30,22,27,23,20,93,77,50,30.42,30.14,7,0,14,0.00
2012-12-13,41,29,22,29,24,20,94,83,51,30.46,30.28,4,0,5,0.00
2012-12-14,46,30,20,31,25,18,94,82,48,30.27,30.06,7,1,13,0.01
2012-12-15,40,32,25,29,24,19,93,76,51,30.32,30.16,9,2,13,0.00
2012-12-16,30,28,26,27,24,18,94,83,67,30.29,30.09,6,1,7,0.07
2012-12-17,33,30,28,32,29,27,96,95,94,30.08,29.80,4,1,7,0.28
2012-12-18,38,35,33,37,34,32,97,97,96,29.79,29.44,3,0,6,0.62
2012-12-19,42,38,33,36,33,31,97,83,70,30.05,29.47,14,3,20,0.00
2012-12-20,40,35,27,32,30,26,94,80,71,30.21,29.96,8,2,13,0.02
2012-12-21,50,40,33,48,37,31,95,90,81,29.96,28.95,19,3,35,1.11
2012-12-22,37,32,27,32,23,16,88,69,55,29.66,29.16,17,5,29,0.01
2012-12-23,38,32,28,27,21,15,87,66,52,29.82,29.66,15,4,25,0.00
2012-12-24,37,32,27,25,21,18,81,65,46,30.04,29.82,17,2,19,0.00
2012-12-25,31,26,19,26,22,15,90,82,72,30.27,29.98,6,2,12,0.03
2012-12-26,30,23,16,28,16,11,94,76,63,30.34,29.92,9,3,12,0.15
2012-12-27,34,31,26,32,29,22,95,92,85,29.90,29.42,11,6,16,0.53
2012-12-28,34,28,21,25,22,20,93,80,66,30.01,29.71,11,4,23,0.00
2012-12-29,26,22,17,23,20,15,93,92,87,30.01,29.52,6,1,10,0.15
2012-12-30,28,23,15,23,14,8,93,69,50,30.03,29.52,11,4,20,0.01
2012-12-31,35,24,14,27,18,8,90,80,68,30.02,29.73,11,2,18,0.00
2013-1-1,36,28,9,29,16,4,88,62,47,29.93,29.68,16,4,25,0.00